Time;durP1;ratioP1;P1;durP2;ratioP2;P2;SDS_P1;SDS_P2;PMS_P1;PMS_P2;Temp;Humidity;BMP_temperature;BMP_pressure;BME280_temperature;BME280_humidity;BME280_pressure;Samples;Min_cycle;Max_cycle;Signal;HPM_P1;HPM_P2
2022/04/09 00:00:47;;;;;;;15.32;5.22;;;;;;;8.93;65.29;97966.13;4863086;29;20113;-79
2022/04/09 00:03:14;;;;;;;13.88;4.40;;;;;;;8.97;66.12;98001.63;4863258;29;20064;-78
2022/04/09 00:05:41;;;;;;;14.82;5.28;;;;;;;8.93;66.21;97993.03;4863552;29;20057;-79
2022/04/09 00:08:08;;;;;;;12.98;4.68;;;;;;;8.90;66.84;98013.91;4863339;29;20057;-79
2022/04/09 00:10:35;;;;;;;13.27;5.05;;;;;;;8.86;67.05;98006.19;4877113;29;20515;-79
2022/04/09 00:13:02;;;;;;;10.43;4.50;;;;;;;8.74;67.08;97995.13;4862929;29;20152;-79
2022/04/09 00:15:29;;;;;;;11.00;5.00;;;;;;;8.78;68.02;98022.81;4862649;29;20457;-79
2022/04/09 00:56:25;;;;;;;13.00;6.47;;;;;;;8.58;74.08;98054.44;5110221;27;1380109;-77
2022/04/09 00:58:57;;;;;;;12.88;6.22;;;;;;;8.39;75.13;98071.22;5110175;28;20050;-78
2022/04/09 01:01:27;;;;;;;9.27;6.03;;;;;;;8.22;75.39;98058.47;5110443;28;20071;-78
2022/04/09 01:03:54;;;;;;;;;;;;;;;8.02;74.99;98060.50;5093109;28;20087;-78
2022/04/09 01:06:22;;;;;;;11.45;6.55;;;;;;;8.05;75.67;98065.66;5110436;28;19970;-80
2022/04/09 01:08:49;;;;;;;15.18;6.63;;;;;;;8.09;76.02;98067.34;5109381;28;20052;-80
2022/04/09 01:11:17;;;;;;;12.63;6.63;;;;;;;8.09;76.27;98068.19;5103633;28;20098;-79
2022/04/09 01:13:44;;;;;;;12.63;6.78;;;;;;;8.21;76.43;98091.41;5090472;28;20064;-77
2022/04/09 01:16:12;;;;;;;13.23;6.80;;;;;;;8.24;76.28;98098.31;5072080;28;20052;-79
2022/04/09 01:18:41;;;;;;;12.30;7.00;;;;;;;8.24;76.44;98098.31;5088134;28;20433;-79
2022/04/09 01:21:11;;;;;;;12.63;7.80;;;;;;;8.26;76.11;98091.34;5088351;28;20201;-77
2022/04/09 01:23:38;;;;;;;14.07;7.28;;;;;;;8.32;76.27;98106.84;5087801;28;20052;-78
2022/04/09 01:26:07;;;;;;;11.23;6.55;;;;;;;8.41;76.60;98105.91;5088452;28;20052;-79
2022/04/09 01:28:37;;;;;;;12.43;7.13;;;;;;;8.43;76.56;98113.66;5088276;28;20566;-79
2022/04/09 01:31:04;;;;;;;14.68;7.30;;;;;;;8.42;75.98;98102.41;5089462;28;20048;-77
2022/04/09 01:33:31;;;;;;;12.65;7.25;;;;;;;8.38;76.41;98098.09;5089290;28;20441;-78
2022/04/09 01:35:58;;;;;;;12.05;7.22;;;;;;;8.54;75.97;98119.53;5089661;28;20062;-79
2022/04/09 01:38:25;;;;;;;13.10;7.18;;;;;;;8.53;76.53;98128.25;5088338;28;20052;-77
2022/04/09 01:40:54;;;;;;;12.82;7.18;;;;;;;8.56;76.26;98139.47;5089643;28;20060;-81
2022/04/09 01:43:23;;;;;;;11.13;6.65;;;;;;;8.50;75.87;98128.31;5088435;28;20058;-78
2022/04/09 01:45:51;;;;;;;9.20;6.70;;;;;;;8.47;76.38;98131.78;5088023;28;20513;-77
2022/04/09 01:48:21;;;;;;;9.30;7.13;;;;;;;8.33;75.77;98129.38;5087813;28;20055;-78
2022/04/09 01:50:49;;;;;;;12.73;7.78;;;;;;;8.42;76.67;98148.38;5087984;28;20052;-78
2022/04/09 01:53:16;;;;;;;11.73;6.82;;;;;;;8.39;76.05;98144.06;5089259;28;20056;-78
2022/04/09 01:55:44;;;;;;;12.10;6.72;;;;;;;8.33;75.74;98150.19;5066539;28;20052;-76
2022/04/09 01:58:13;;;;;;;9.87;6.23;;;;;;;8.41;75.81;98176.16;5074366;28;20053;-78
2022/04/09 02:00:43;;;;;;;8.80;5.60;;;;;;;8.27;75.52;98144.22;5074285;28;20318;-78
2022/04/09 02:03:10;;;;;;;9.10;5.65;;;;;;;8.44;75.64;98170.88;5074431;28;20048;-77
2022/04/09 02:05:37;;;;;;;10.57;6.03;;;;;;;8.42;75.66;98166.59;5075780;28;20082;-77
2022/04/09 02:08:05;;;;;;;10.13;5.80;;;;;;;8.43;75.36;98169.16;5074703;28;20059;-77
2022/04/09 02:10:33;;;;;;;9.65;5.50;;;;;;;8.42;75.07;98167.44;5074081;28;20097;-78
2022/04/09 02:13:04;;;;;;;7.28;4.93;;;;;;;8.37;75.46;98182.25;5074268;28;20155;-78
2022/04/09 02:15:31;;;;;;;9.65;5.25;;;;;;;8.34;75.35;98190.94;5074212;28;20055;-78
2022/04/09 02:18:00;;;;;;;7.15;5.13;;;;;;;8.30;75.09;98176.28;5074086;28;20080;-78
2022/04/09 02:20:27;;;;;;;6.30;4.72;;;;;;;8.33;74.97;98206.59;5075400;28;20247;-77
2022/04/09 02:22:54;;;;;;;6.50;4.70;;;;;;;8.32;75.35;98218.72;5074964;28;20106;-77
2022/04/09 02:25:21;;;;;;;8.82;4.38;;;;;;;8.24;74.71;98210.16;5073722;28;20059;-79
2022/04/09 02:27:48;;;;;;;4.65;3.60;;;;;;;8.16;73.98;98225.00;5075420;28;20052;-79
2022/04/09 02:30:18;;;;;;;7.03;3.65;;;;;;;8.13;74.54;98220.72;5086795;28;20424;-78
2022/04/09 02:32:51;;;;;;;6.65;3.40;;;;;;;8.16;73.97;98220.66;5095598;28;20082;-79
2022/04/09 02:35:26;;;;;;;4.45;3.17;;;;;;;8.14;73.56;98221.56;5092744;28;20056;-78
2022/04/09 02:37:55;;;;;;;5.45;3.40;;;;;;;7.95;73.38;98200.13;5095435;28;20063;-78
2022/04/09 02:40:23;;;;;;;3.78;3.00;;;;;;;8.02;73.16;98227.78;5093850;28;20566;-79
2022/04/09 02:42:51;;;;;;;3.83;2.92;;;;;;;7.95;73.39;98249.53;5094090;28;20047;-78
2022/04/09 02:45:18;;;;;;;5.15;2.75;;;;;;;7.91;72.69;98246.09;5094202;28;20052;-79
2022/04/09 02:47:46;;;;;;;4.05;3.05;;;;;;;7.72;73.35;98221.19;5076596;28;20093;-79
2022/04/09 02:50:18;;;;;;;3.25;2.78;;;;;;;7.88;73.30;98240.09;5093673;28;20051;-79
2022/04/09 02:52:47;;;;;;;4.10;3.15;;;;;;;7.88;72.55;98246.16;5094098;28;20056;-79
2022/04/09 02:55:15;;;;;;;5.93;3.10;;;;;;;7.87;72.83;98246.16;5093857;28;20051;-78
2022/04/09 02:57:43;;;;;;;3.97;2.75;;;;;;;7.78;72.58;98222.00;5077854;28;20063;-77
2022/04/09 03:00:12;;;;;;;4.25;3.28;;;;;;;7.87;72.51;98249.66;5095542;28;20056;-78
2022/04/09 03:02:42;;;;;;;6.68;3.03;;;;;;;7.86;72.11;98249.66;5094535;28;20056;-78
2022/04/09 03:05:24;;;;;;;4.38;3.15;;;;;;;7.96;72.24;98270.34;5093301;28;20048;-79
2022/04/09 03:07:51;;;;;;;3.17;2.85;;;;;;;7.96;72.11;98256.47;5093686;28;20109;-78
2022/04/09 03:10:18;;;;;;;3.90;3.30;;;;;;;8.08;72.07;98274.50;5092935;28;20468;-77
2022/04/09 03:12:46;;;;;;;5.57;2.90;;;;;;;8.09;71.60;98267.59;5093800;28;20539;-78
2022/04/09 03:15:15;;;;;;;;;;;;;;;7.96;71.78;98264.28;5093482;28;20101;-79
2022/04/09 03:17:43;;;;;;;4.88;3.53;;;;;;;7.98;71.99;98257.31;5092982;28;19934;-79
2022/04/09 03:20:11;;;;;;;4.10;3.13;;;;;;;8.06;71.26;98273.66;5084281;28;20052;-79
2022/04/09 03:22:47;;;;;;;4.53;3.28;;;;;;;8.11;71.13;98287.50;5089346;28;20121;-80
2022/04/09 03:25:20;;;;;;;7.18;3.78;;;;;;;8.20;70.93;98273.53;5093512;28;20051;-79
2022/04/09 03:27:51;;;;;;;4.18;3.00;;;;;;;8.07;70.70;98259.81;5093830;28;20574;-78
2022/04/09 03:30:19;;;;;;;3.75;3.20;;;;;;;8.31;70.25;98282.03;5074238;28;20051;-77
2022/04/09 03:32:47;;;;;;;6.03;3.05;;;;;;;8.31;69.97;98295.03;5091522;28;20090;-78
2022/04/09 03:35:23;;;;;;;3.15;2.80;;;;;;;8.31;69.75;98297.66;5108563;28;20191;-80
2022/04/09 03:37:53;;;;;;;5.07;2.90;;;;;;;8.21;69.20;98314.25;5092158;28;20052;-78
2022/04/09 03:40:25;;;;;;;3.60;2.70;;;;;;;8.22;69.45;98313.38;5103147;28;20044;-79
2022/04/09 03:42:54;;;;;;;4.07;2.83;;;;;;;8.21;69.27;98316.84;5092434;28;20424;-79
2022/04/09 03:45:21;;;;;;;5.32;3.10;;;;;;;8.09;69.40;98307.47;5085642;28;20050;-79
2022/04/09 03:47:49;;;;;;;6.43;3.47;;;;;;;8.12;69.42;98307.41;5058716;28;20497;-80
2022/04/09 03:50:17;;;;;;;6.35;3.40;;;;;;;8.12;69.19;98301.34;5086108;28;20060;-81
2022/04/09 03:52:51;;;;;;;8.50;4.07;;;;;;;8.20;69.46;98320.34;5092343;28;20079;-80
2022/04/09 03:55:25;;;;;;;8.20;3.70;;;;;;;8.23;69.39;98325.50;5086716;28;20040;-80
2022/04/09 03:57:52;;;;;;;8.35;4.13;;;;;;;8.20;69.43;98316.00;5091925;28;20083;-79
2022/04/09 04:00:21;;;;;;;8.55;4.80;;;;;;;8.25;69.62;98321.13;5099556;28;20500;-79
2022/04/09 04:02:51;;;;;;;9.30;4.18;;;;;;;8.23;69.37;98335.91;5090344;28;20163;-80
2022/04/09 04:05:20;;;;;;;;;;;;;;;8.06;69.62;98324.81;5091180;28;20059;-79
2022/04/09 04:07:48;;;;;;;5.43;4.22;;;;;;;8.18;69.64;98341.16;5090614;28;20013;-79
2022/04/09 04:10:18;;;;;;;6.63;4.20;;;;;;;8.26;68.90;98348.88;5090573;28;20515;-80
2022/04/09 04:12:52;;;;;;;6.03;3.55;;;;;;;8.32;68.09;98350.53;5091855;28;20052;-82
2022/04/09 04:15:26;;;;;;;4.07;3.60;;;;;;;8.41;67.02;98360.88;5091837;28;20056;-81
2022/04/09 04:17:55;;;;;;;7.43;3.92;;;;;;;8.42;67.11;98361.75;5091989;28;20044;-78
2022/04/09 04:20:26;;;;;;;7.05;3.78;;;;;;;8.46;66.61;98360.84;5091356;28;20466;-83
2022/04/09 04:22:58;;;;;;;4.82;3.60;;;;;;;8.49;66.74;98390.25;5091614;28;20143;-79
2022/04/09 04:25:26;;;;;;;9.65;3.75;;;;;;;8.54;66.87;98387.59;5074856;28;20062;-80
2022/04/09 04:27:54;;;;;;;6.50;3.42;;;;;;;8.57;66.67;98390.19;5091663;28;20056;-80
2022/04/09 04:30:23;;;;;;;5.38;3.40;;;;;;;8.54;66.05;98370.28;5091623;28;20146;-79
2022/04/09 04:32:51;;;;;;;7.78;3.70;;;;;;;8.70;66.27;98406.53;5092812;28;20064;-81
2022/04/09 04:35:26;;;;;;;7.65;4.00;;;;;;;8.62;66.25;98398.78;5075974;28;20463;-80
2022/04/09 04:37:54;;;;;;;4.70;3.75;;;;;;;8.58;65.86;98407.50;5092569;28;20101;-80
2022/04/09 04:40:25;;;;;;;5.65;3.50;;;;;;;8.63;65.85;98408.34;5083653;28;20191;-81
2022/04/09 04:42:57;;;;;;;7.00;3.70;;;;;;;8.69;65.48;98420.41;5075230;28;20105;-81
2022/04/09 04:45:27;;;;;;;3.83;3.20;;;;;;;8.68;64.91;98413.47;5091370;28;20125;-79
2022/04/09 04:47:56;;;;;;;4.45;3.33;;;;;;;8.69;64.82;98421.28;5091512;28;20056;-83
2022/04/09 04:50:27;;;;;;;4.20;3.15;;;;;;;8.87;64.27;98427.13;5088078;28;20060;-81
2022/04/09 04:52:56;;;;;;;5.93;3.33;;;;;;;8.83;64.25;98421.09;5091558;28;20048;-79
2022/04/09 04:55:25;;;;;;;5.32;3.42;;;;;;;8.95;63.97;98443.53;5091765;28;20048;-80
2022/04/09 04:57:53;;;;;;;4.43;3.30;;;;;;;8.88;64.56;98445.31;5092947;28;20056;-79
2022/04/09 05:00:31;;;;;;;7.22;3.78;;;;;;;8.84;64.75;98455.81;5092334;28;20098;-79
2022/04/09 05:03:02;;;;;;;7.43;3.85;;;;;;;8.75;65.11;98461.97;5091925;28;20051;-77
2022/04/09 05:05:33;;;;;;;7.72;4.32;;;;;;;8.62;64.89;98466.47;5091396;28;20052;-80
2022/04/09 05:08:00;;;;;;;5.18;4.05;;;;;;;8.54;64.79;98458.75;5091694;28;20044;-81
2022/04/09 05:10:27;;;;;;;6.63;3.97;;;;;;;8.60;65.07;98468.22;5085383;28;20055;-80
2022/04/09 05:12:59;;;;;;;7.05;4.15;;;;;;;8.67;64.72;98456.00;5073000;28;20064;-80
2022/04/09 05:15:29;;;;;;;11.52;4.40;;;;;;;9.00;64.25;98470.38;5055049;28;20182;-80
2022/04/09 05:17:56;;;;;;;6.13;4.07;;;;;;;9.02;63.81;98476.44;5070736;28;20056;-79
2022/04/09 05:20:23;;;;;;;6.47;4.55;;;;;;;9.05;63.92;98485.94;5070932;28;20052;-81
2022/04/09 05:22:54;;;;;;;6.35;3.92;;;;;;;8.97;64.34;98481.69;5055084;28;20492;-83
2022/04/09 05:25:22;;;;;;;5.93;4.00;;;;;;;8.89;64.41;98486.13;5070694;28;20185;-79
2022/04/09 05:27:53;;;;;;;6.20;4.57;;;;;;;8.81;64.90;98501.81;5070486;28;20098;-81
2022/04/09 05:30:32;;;;;;;5.40;4.55;;;;;;;8.84;64.69;98520.91;5070852;28;20469;-78
2022/04/09 05:33:01;;;;;;;4.80;4.07;;;;;;;9.04;64.22;98516.34;5074751;28;20505;-80
2022/04/09 05:35:28;;;;;;;6.68;4.75;;;;;;;9.14;63.52;98510.16;5074738;28;20481;-78
2022/04/09 05:38:08;;;;;;;5.88;4.28;;;;;;;9.07;63.64;98492.84;5074760;28;20048;-80
2022/04/09 05:40:39;;;;;;;6.78;4.70;;;;;;;9.32;62.60;98516.00;5077043;28;20090;-82
2022/04/09 05:43:12;;;;;;;6.82;4.95;;;;;;;9.45;62.47;98520.16;5066804;28;20048;-81
2022/04/09 05:45:42;;;;;;;6.20;4.82;;;;;;;9.61;61.52;98494.72;5075495;28;20105;-80
2022/04/09 05:48:10;;;;;;;5.28;4.68;;;;;;;9.95;61.26;98526.38;5094110;28;20052;-81
2022/04/09 05:50:43;;;;;;;7.63;4.80;;;;;;;10.04;60.62;98522.78;5096245;28;20531;-80
2022/04/09 05:53:13;;;;;;;8.15;4.55;;;;;;;9.90;60.81;98523.00;5077658;28;20044;-83
2022/04/09 05:55:40;;;;;;;5.40;4.20;;;;;;;9.82;61.70;98543.09;5096543;28;20527;-81
2022/04/09 05:58:07;;;;;;;5.43;4.45;;;;;;;9.60;61.74;98535.59;5075159;28;20123;-79
2022/04/09 06:00:37;;;;;;;6.68;4.43;;;;;;;9.56;62.27;98544.34;5080921;28;20066;-83
2022/04/09 06:03:17;;;;;;;6.78;4.70;;;;;;;9.74;62.00;98545.81;5095203;28;20056;-81
2022/04/09 06:05:45;;;;;;;6.80;4.55;;;;;;;10.28;60.73;98554.56;5094345;28;20425;-81
2022/04/09 06:08:19;;;;;;;5.88;4.32;;;;;;;10.57;59.41;98552.38;5075041;28;20571;-80
2022/04/09 06:10:47;;;;;;;5.80;4.40;;;;;;;10.81;58.99;98573.72;5087067;28;20111;-78
2022/04/09 06:13:15;;;;;;;5.78;4.10;;;;;;;10.83;58.80;98582.41;5089800;28;20056;-79
2022/04/09 06:15:42;;;;;;;4.43;4.03;;;;;;;10.72;58.76;98595.66;5080307;28;20419;-78
2022/04/09 06:18:16;;;;;;;5.35;3.60;;;;;;;10.53;59.28;98582.03;5098026;28;20566;-80
2022/04/09 06:20:43;;;;;;;5.65;4.13;;;;;;;10.59;59.40;98578.47;5099606;28;20150;-82
2022/04/09 06:23:13;;;;;;;;;;;;;;;10.54;60.15;98595.94;5100814;28;20055;-81
2022/04/09 06:25:40;;;;;;;5.65;4.30;;;;;;;10.77;58.64;98598.16;5102228;28;19931;-80
2022/04/09 06:28:09;;;;;;;5.43;4.50;;;;;;;10.82;58.73;98593.75;5101287;28;20086;-79
2022/04/09 06:30:41;;;;;;;5.68;4.25;;;;;;;10.94;58.54;98632.69;5085616;28;20127;-80
2022/04/09 06:33:17;;;;;;;5.82;4.45;;;;;;;10.76;59.15;98630.41;5086393;28;20048;-80
2022/04/09 06:35:46;;;;;;;6.85;4.28;;;;;;;10.64;58.55;98606.22;5075802;28;20048;-81
2022/04/09 06:38:16;;;;;;;5.03;3.78;;;;;;;10.54;58.75;98643.84;5078700;28;20056;-79
2022/04/09 06:40:46;;;;;;;5.13;4.15;;;;;;;10.41;59.59;98643.16;5080354;28;20421;-83
2022/04/09 06:43:18;;;;;;;6.00;4.30;;;;;;;10.31;59.24;98644.19;5065121;28;20487;-81
2022/04/09 06:46:11;;;;;;;5.07;4.20;;;;;;;10.51;59.40;98656.91;5079752;28;20425;-81
2022/04/09 06:48:49;;;;;;;4.65;4.20;;;;;;;10.58;58.75;98636.78;5080100;28;20118;-82
2022/04/09 06:51:28;;;;;;;5.63;4.20;;;;;;;10.52;59.03;98639.50;5078832;28;20083;-80
2022/04/09 06:54:03;;;;;;;7.03;4.10;;;;;;;10.47;59.07;98642.19;5062402;28;20057;-81
2022/04/09 06:56:30;;;;;;;6.32;4.60;;;;;;;10.39;59.37;98651.88;5058693;28;20069;-81
2022/04/09 06:59:00;;;;;;;4.78;4.28;;;;;;;10.38;58.83;98651.03;5073946;28;20049;-81
2022/04/09 07:01:28;;;;;;;13.25;7.45;;;;;;;10.42;58.86;98673.59;5056419;28;20071;-82
2022/04/09 07:04:00;;;;;;;6.25;5.00;;;;;;;10.40;58.73;98664.06;5073065;28;20497;-83
2022/04/09 07:06:30;;;;;;;6.07;4.72;;;;;;;10.43;58.71;98653.56;5073529;28;20083;-81
2022/04/09 07:08:57;;;;;;;7.15;4.38;;;;;;;10.53;58.67;98669.97;5073170;28;20428;-84
2022/04/09 07:11:24;;;;;;;8.65;4.78;;;;;;;10.15;58.50;98640.91;5075299;28;20059;-80
2022/04/09 07:13:51;;;;;;;5.70;4.70;;;;;;;10.37;58.92;98683.25;5074220;28;20063;-80
2022/04/09 07:16:18;;;;;;;7.80;4.88;;;;;;;10.40;58.89;98680.56;5092844;28;20044;-81
2022/04/09 07:18:45;;;;;;;9.32;5.38;;;;;;;10.21;58.99;98658.22;5077554;28;20049;-84
2022/04/09 07:21:12;;;;;;;6.07;4.80;;;;;;;10.44;58.66;98699.69;5078326;28;20048;-82
2022/04/09 07:23:40;;;;;;;9.07;5.53;;;;;;;10.42;58.16;98694.47;5065460;28;20514;-81
2022/04/09 07:26:10;;;;;;;6.82;4.93;;;;;;;10.50;58.22;98711.78;5085939;28;20139;-81
2022/04/09 07:28:37;;;;;;;8.50;4.90;;;;;;;10.56;57.68;98714.28;5084834;28;20116;-81
2022/04/09 07:31:07;;;;;;;7.75;5.22;;;;;;;10.35;57.84;98718.09;5073625;28;20048;-82
2022/04/09 07:33:34;;;;;;;7.75;5.20;;;;;;;10.11;58.13;98707.06;5076797;28;20143;-81
2022/04/09 07:36:01;;;;;;;10.38;5.43;;;;;;;10.31;58.32;98721.63;5082208;28;20071;-83
2022/04/09 07:38:28;;;;;;;9.02;5.75;;;;;;;10.41;57.78;98720.59;5092727;28;20083;-84
2022/04/09 07:40:57;;;;;;;11.00;5.75;;;;;;;10.51;57.53;98703.91;5093040;28;20052;-82
2022/04/09 07:43:24;;;;;;;10.20;5.75;;;;;;;10.98;57.20;98735.41;5093780;28;20500;-84
2022/04/09 07:45:51;;;;;;;7.88;5.55;;;;;;;11.14;56.99;98736.91;5092833;28;20143;-80
2022/04/09 07:48:20;;;;;;;8.15;5.47;;;;;;;11.20;56.10;98733.31;5093436;28;20455;-82
2022/04/09 07:50:59;;;;;;;8.35;6.10;;;;;;;11.05;56.32;98726.56;5093491;28;20493;-82
2022/04/09 07:53:26;;;;;;;10.70;5.95;;;;;;;11.47;56.02;98756.34;5094301;28;20051;-84
2022/04/09 07:55:53;;;;;;;10.88;6.15;;;;;;;11.65;55.22;98772.59;5094065;28;20074;-82
2022/04/09 07:58:20;;;;;;;8.85;5.55;;;;;;;11.55;56.03;98758.84;5093279;28;20082;-81
2022/04/09 08:00:49;;;;;;;8.25;5.97;;;;;;;11.50;55.69;98759.81;5093834;28;20626;-81
2022/04/09 08:03:17;;;;;;;7.20;5.25;;;;;;;11.32;56.07;98761.84;5094556;28;20044;-84
2022/04/09 08:05:44;;;;;;;8.60;5.15;;;;;;;10.97;56.35;98786.81;5075834;28;20562;-82
2022/04/09 08:08:11;;;;;;;5.55;4.40;;;;;;;10.62;57.30;98772.50;5094360;28;20052;-82
2022/04/09 08:10:39;;;;;;;7.43;4.97;;;;;;;10.61;57.30;98769.94;5094721;28;20052;-84
2022/04/09 08:13:06;;;;;;;10.13;5.95;;;;;;;10.46;57.85;98789.28;5094617;28;20051;-85
2022/04/09 08:15:33;;;;;;;6.90;5.78;;;;;;;10.34;57.56;98785.06;5094038;28;20059;-82
2022/04/09 08:18:07;;;;;;;9.70;6.32;;;;;;;10.28;58.31;98795.56;5063986;28;20111;-82
2022/04/09 08:20:54;;;;;;;10.07;5.88;;;;;;;10.27;58.25;98793.84;5072476;28;20048;-81
2022/04/09 08:23:21;;;;;;;14.60;8.95;;;;;;;10.23;58.22;98787.78;5083681;28;20067;-83
2022/04/09 08:25:48;;;;;;;22.85;13.27;;;;;;;10.21;58.66;98805.22;5093208;28;20051;-83
2022/04/09 08:28:17;;;;;;;13.38;8.20;;;;;;;10.02;58.48;98804.59;5094157;28;20124;-81
2022/04/09 08:30:44;;;;;;;10.00;6.25;;;;;;;9.81;59.82;98810.88;5094343;28;20055;-83
2022/04/09 08:33:40;;;;;;;11.85;7.45;;;;;;;9.75;59.77;98804.88;5088409;28;20060;-83
2022/04/09 08:36:04;;;;;;;10.82;6.95;;;;;;;10.29;58.85;98781.66;5072390;28;20059;-82
2022/04/09 08:38:38;;;;;;;7.75;5.75;;;;;;;10.93;57.15;98805.19;5073169;28;20048;-82
2022/04/09 08:41:05;;;;;;;9.23;6.78;;;;;;;11.68;55.31;98811.81;5073301;28;20048;-80
2022/04/09 08:43:38;;;;;;;8.20;5.50;;;;;;;12.23;54.10;98796.81;5073668;28;20052;-82
2022/04/09 08:46:08;;;;;;;11.00;7.38;;;;;;;12.34;52.50;98763.41;5077010;28;20063;-84
2022/04/09 08:48:46;;;;;;;13.68;8.27;;;;;;;12.38;52.78;98786.03;5085106;28;20051;-84
2022/04/09 08:51:38;;;;;;;9.88;5.93;;;;;;;11.92;53.97;98820.97;5094609;28;20067;-82
2022/04/09 08:54:11;;;;;;;10.32;6.80;;;;;;;11.57;54.94;98819.84;5091682;28;20048;-82
2022/04/09 08:56:39;;;;;;;13.18;7.03;;;;;;;11.63;54.51;98809.25;5097913;28;20063;-82
2022/04/09 08:59:07;;;;;;;8.33;5.37;;;;;;;11.77;54.27;98826.47;5064428;28;20055;-82
2022/04/09 09:01:34;;;;;;;7.63;4.93;;;;;;;11.63;54.60;98842.38;5070816;28;20150;-83
2022/04/09 09:04:04;;;;;;;7.88;4.45;;;;;;;11.45;54.70;98836.59;5092724;28;20074;-82
2022/04/09 09:06:44;;;;;;;14.40;7.15;;;;;;;11.39;54.75;98830.59;5094409;28;20552;-82
2022/04/09 09:09:29;;;;;;;7.10;5.65;;;;;;;11.28;54.81;98817.69;5097729;28;20052;-82
2022/04/09 09:12:00;;;;;;;8.98;4.82;;;;;;;11.08;55.78;98818.00;5098007;28;20044;-82
2022/04/09 09:14:36;;;;;;;7.13;4.93;;;;;;;11.02;55.48;98810.25;5092088;28;20422;-84
2022/04/09 09:17:04;;;;;;;5.63;4.60;;;;;;;10.81;55.17;98780.09;5098256;28;20048;-83
2022/04/09 09:19:40;;;;;;;7.38;4.53;;;;;;;11.11;55.86;98833.63;5095334;28;20678;-82
2022/04/09 09:22:21;;;;;;;;;;;;;;;10.82;55.93;98839.31;5096168;28;20040;-80
2022/04/09 09:25:16;;;;;;;5.57;4.28;;;;;;;10.67;55.72;98819.47;5097994;28;19971;-82
2022/04/09 09:28:02;;;;;;;6.38;4.40;;;;;;;11.17;54.77;98824.84;5096057;28;20532;-82
2022/04/09 09:31:05;;;;;;;5.65;4.57;;;;;;;11.00;54.47;98770.22;5002430;28;20148;-82
2022/04/09 09:33:36;;;;;;;5.25;4.57;;;;;;;11.63;53.90;98845.84;5033832;28;20062;-81
2022/04/09 09:36:32;;;;;;;8.23;4.95;;;;;;;11.67;53.69;98820.53;5017469;28;20056;-81
2022/04/09 09:39:03;;;;;;;5.82;3.95;;;;;;;11.95;52.94;98836.63;5033895;28;20457;-83
2022/04/09 09:41:30;;;;;;;5.05;4.20;;;;;;;11.94;52.75;98827.06;5037902;28;20168;-81
2022/04/09 09:44:31;;;;;;;5.22;3.67;;;;;;;11.66;52.46;98779.56;5033285;28;20045;-84
2022/04/09 09:47:17;;;;;;;6.25;4.50;;;;;;;11.83;52.09;98798.44;5014083;28;20446;-81
2022/04/09 09:49:59;;;;;;;8.98;5.50;;;;;;;12.74;51.20;98849.00;5033472;28;20041;-79
2022/04/09 09:52:28;;;;;;;7.63;5.55;;;;;;;13.10;50.58;98843.88;5018104;28;20053;-83
2022/04/09 09:55:26;;;;;;;8.27;5.72;;;;;;;12.65;50.84;98779.34;5033642;28;20056;-81
2022/04/09 09:58:16;;;;;;;6.53;4.82;;;;;;;12.28;51.27;98761.81;5034083;28;20053;-81
2022/04/09 10:01:59;;;;;;;7.65;5.35;;;;;;;12.72;51.46;98840.31;5034116;28;20093;-82
2022/04/09 10:04:29;;;;;;;5.93;4.50;;;;;;;12.59;51.21;98838.88;5033556;28;20057;-78
2022/04/09 10:11:17;;;;;;;5.30;4.32;;;;;;;12.63;49.72;98802.09;5033006;28;20055;-81
2022/04/09 10:14:13;;;;;;;4.65;4.25;;;;;;;12.76;49.78;98836.75;5095504;28;20098;-82
2022/04/09 10:16:44;;;;;;;4.38;3.97;;;;;;;12.97;48.86;98834.53;5095282;28;20076;-83
2022/04/09 10:19:17;;;;;;;4.07;3.70;;;;;;;12.86;48.36;98822.56;5060435;28;20058;-81
2022/04/09 10:21:46;;;;;;;4.28;3.58;;;;;;;13.21;47.82;98822.63;5095282;28;20485;-82
2022/04/09 10:24:20;;;;;;;4.20;3.80;;;;;;;13.34;47.24;98803.09;5093865;28;20083;-80
2022/04/09 10:26:47;;;;;;;9.18;4.60;;;;;;;13.41;46.88;98815.16;5093975;28;20052;-81
2022/04/09 10:29:15;;;;;;;3.83;3.40;;;;;;;13.70;46.07;98826.66;5095957;28;20051;-81
2022/04/09 10:31:49;;;;;;;;;;;;;;;13.27;48.04;98830.31;5097058;28;20130;-83
2022/04/09 10:34:17;;;;;;;5.18;3.65;;;;;;;12.96;47.46;98824.94;5062430;28;19962;-82
2022/04/09 10:36:47;;;;;;;4.45;3.85;;;;;;;12.72;48.25;98836.84;5078229;28;20052;-81
2022/04/09 10:39:39;;;;;;;;;;;;;;;12.43;49.79;98833.94;5094300;28;20074;-80
2022/04/09 10:42:31;;;;;;;6.70;4.47;;;;;;;12.79;48.69;98831.41;5094846;28;19924;-81
2022/04/09 10:44:58;;;;;;;;;;;;;;;12.60;49.56;98833.56;5082482;28;20062;-79
2022/04/09 10:47:25;;;;;;;5.80;4.20;;;;;;;12.63;49.64;98845.78;5089139;28;19924;-80
2022/04/09 10:50:01;;;;;;;8.25;4.68;;;;;;;12.42;49.29;98824.34;5094828;28;20060;-79
2022/04/09 10:52:30;;;;;;;7.80;4.20;;;;;;;12.62;49.38;98857.97;5093940;28;20104;-81
2022/04/09 10:55:09;;;;;;;4.90;4.40;;;;;;;12.80;48.54;98840.13;5094012;28;20505;-82
2022/04/09 10:57:44;;;;;;;5.88;4.60;;;;;;;12.89;47.97;98840.81;5093542;28;20083;-82
2022/04/09 11:00:23;;;;;;;5.80;4.10;;;;;;;13.17;47.57;98828.84;5091082;28;20499;-82
2022/04/09 11:03:28;;;;;;;5.78;4.22;;;;;;;13.34;47.45;98826.72;5074084;28;20060;-85
2022/04/09 11:06:34;;;;;;;6.95;3.92;;;;;;;13.28;46.43;98824.19;5060201;28;20056;-81
2022/04/09 11:09:03;;;;;;;4.90;4.00;;;;;;;12.82;46.49;98750.13;5075858;28;20044;-85
2022/04/09 11:11:31;;;;;;;6.25;4.07;;;;;;;13.47;46.45;98815.00;5075685;28;20098;-82
2022/04/09 11:13:58;;;;;;;7.25;4.32;;;;;;;13.36;45.88;98796.06;5076968;28;20053;-82
2022/04/09 11:16:33;;;;;;;6.03;4.45;;;;;;;13.27;46.06;98791.88;5075998;28;20417;-81
2022/04/09 11:19:01;;;;;;;6.45;4.20;;;;;;;13.45;46.33;98829.06;5077966;28;20049;-81
2022/04/09 11:21:30;;;;;;;6.50;4.53;;;;;;;13.61;45.84;98819.03;5086470;28;20063;-78
2022/04/09 11:24:05;;;;;;;8.27;4.47;;;;;;;13.32;46.53;98824.13;5091650;28;20054;-78
2022/04/09 11:26:32;;;;;;;7.70;4.65;;;;;;;13.08;47.63;98827.31;5084784;28;20493;-79
2022/04/09 11:29:09;;;;;;;6.07;4.75;;;;;;;12.78;47.82;98793.03;5099800;28;20048;-81
2022/04/09 11:31:47;;;;;;;6.88;4.95;;;;;;;12.78;48.06;98807.91;5097809;28;20530;-83
2022/04/09 11:34:14;;;;;;;6.25;4.90;;;;;;;12.48;48.20;98795.41;5095113;28;20554;-81
2022/04/09 11:36:41;;;;;;;7.70;5.00;;;;;;;12.14;49.05;98810.09;5094957;28;20062;-83
2022/04/09 11:39:08;;;;;;;6.10;4.97;;;;;;;11.92;49.62;98807.03;5093767;28;20055;-80
2022/04/09 11:41:36;;;;;;;7.18;5.20;;;;;;;11.85;49.59;98814.97;5097600;28;20063;-81
2022/04/09 11:44:03;;;;;;;9.80;4.40;;;;;;;11.83;49.50;98828.94;5095217;28;20060;-80
2022/04/09 11:46:42;;;;;;;7.45;4.50;;;;;;;11.92;49.13;98831.44;5094298;28;20459;-83
2022/04/09 11:49:10;;;;;;;5.82;4.43;;;;;;;12.09;48.69;98839.00;5094260;28;20056;-81
2022/04/09 11:51:37;;;;;;;5.60;4.68;;;;;;;12.15;49.00;98841.47;5093308;28;20493;-80
2022/04/09 11:54:31;;;;;;;9.68;5.55;;;;;;;12.39;48.36;98834.00;5092171;28;20134;-82
2022/04/09 11:57:03;;;;;;;10.45;6.57;;;;;;;12.12;48.46;98820.59;5090324;28;20142;-81
2022/04/09 11:59:31;;;;;;;9.85;6.30;;;;;;;12.33;48.58;98826.31;5091351;28;20067;-80
2022/04/09 12:02:01;;;;;;;7.13;4.30;;;;;;;12.56;47.73;98829.31;5093349;28;20051;-81
2022/04/09 12:04:35;;;;;;;5.28;4.30;;;;;;;12.95;47.14;98844.19;5092942;28;20044;-80
2022/04/09 12:07:04;;;;;;;5.45;3.97;;;;;;;13.21;46.72;98835.75;5090338;28;20051;-80
2022/04/09 12:09:32;;;;;;;6.38;4.30;;;;;;;13.16;46.72;98820.09;5074452;28;20045;-79
2022/04/09 12:12:02;;;;;;;6.53;4.50;;;;;;;13.07;46.98;98815.94;5077950;28;20166;-79
2022/04/09 12:14:29;;;;;;;;;;;;;;;13.00;47.57;98842.34;5092429;28;20056;-81
2022/04/09 12:16:56;;;;;;;7.97;5.00;;;;;;;12.94;47.28;98851.19;5092727;28;19967;-83
2022/04/09 12:19:31;;;;;;;7.45;4.30;;;;;;;12.85;47.55;98859.25;5074623;28;20077;-82
2022/04/09 12:22:20;;;;;;;5.82;4.35;;;;;;;12.84;47.53;98849.66;5092741;28;20139;-81
2022/04/09 12:24:52;;;;;;;9.77;4.43;;;;;;;13.07;47.12;98850.00;5092480;28;20048;-81
2022/04/09 12:27:46;;;;;;;5.25;4.10;;;;;;;13.00;46.95;98842.34;5093009;28;20079;-82
2022/04/09 12:30:33;;;;;;;6.35;5.65;;;;;;;13.03;46.83;98844.88;5091397;28;20127;-81
2022/04/09 12:33:11;;;;;;;6.05;5.07;;;;;;;13.06;46.55;98834.34;5092578;28;20051;-80
2022/04/09 12:35:39;;;;;;;5.47;3.80;;;;;;;13.18;46.10;98852.38;5092918;28;20058;-80
2022/04/09 12:38:07;;;;;;;5.65;3.97;;;;;;;12.98;46.81;98846.75;5074647;28;20047;-79
2022/04/09 12:40:34;;;;;;;4.47;4.03;;;;;;;12.83;46.85;98856.66;5093908;28;20051;-81
2022/04/09 12:43:35;;;;;;;6.80;3.75;;;;;;;12.56;47.56;98852.91;5092619;28;20051;-81